Time;durP1;ratioP1;P1;durP2;ratioP2;P2;SDS_P1;SDS_P2;PMS_P1;PMS_P2;Temp;Humidity;BMP_temperature;BMP_pressure;BME280_temperature;BME280_humidity;BME280_pressure;Samples;Min_cycle;Max_cycle;Signal;HPM_P1;HPM_P2
2023/03/17 00:01:08;;;;;;;2.45;1.80;;;;;;;6.94;89.20;100671.34;5068910;28;20024;-65
2023/03/17 00:03:38;;;;;;;2.50;1.70;;;;;;;6.95;88.59;100673.13;5068345;28;20032;-66
2023/03/17 00:06:04;;;;;;;1.95;1.55;;;;;;;6.93;88.80;100685.03;5069477;28;20150;-65
2023/03/17 00:08:32;;;;;;;5.35;1.80;;;;;;;6.94;88.79;100693.66;5067394;28;20119;-66
2023/03/17 00:10:58;;;;;;;2.72;1.65;;;;;;;6.92;88.96;100688.44;5069091;28;20473;-65
2023/03/17 00:13:24;;;;;;;4.13;1.80;;;;;;;6.92;89.09;100690.13;5069023;28;20032;-65
2023/03/17 00:15:55;;;;;;;3.05;1.73;;;;;;;6.90;89.24;100679.78;5069788;28;20028;-65
2023/03/17 00:18:21;;;;;;;2.97;2.13;;;;;;;6.89;89.29;100690.00;5069383;28;20025;-65
2023/03/17 00:20:47;;;;;;;3.40;2.00;;;;;;;6.88;89.62;100685.66;5069162;28;20035;-65
2023/03/17 00:23:18;;;;;;;3.25;1.88;;;;;;;6.87;89.18;100679.63;5068563;28;20032;-66
2023/03/17 00:25:45;;;;;;;;;;;;;;;6.84;89.21;100664.91;5068654;28;20119;-65
2023/03/17 00:28:25;;;;;;;1.92;1.75;;;;;;;6.82;90.01;100656.22;5069044;28;20440;-65
2023/03/17 00:30:59;;;;;;;3.10;1.75;;;;;;;6.78;90.77;100645.72;5068436;28;20029;-66
2023/03/17 00:33:27;;;;;;;2.47;1.90;;;;;;;6.75;90.68;100649.03;5069341;28;20103;-65
2023/03/17 00:35:53;;;;;;;2.75;1.75;;;;;;;6.72;90.88;100643.75;5069205;28;20552;-65
2023/03/17 00:38:20;;;;;;;2.63;1.70;;;;;;;6.71;91.40;100642.00;5068835;28;20039;-65
2023/03/17 00:40:46;;;;;;;3.33;1.50;;;;;;;6.69;90.24;100647.06;5069878;28;20032;-66
2023/03/17 00:43:12;;;;;;;6.32;1.60;;;;;;;6.69;90.13;100652.22;5068388;28;20495;-65
2023/03/17 00:45:39;;;;;;;2.92;1.85;;;;;;;6.67;90.61;100651.28;5056048;28;20025;-65
2023/03/17 00:48:12;;;;;;;2.15;1.58;;;;;;;6.66;90.29;100649.50;5036515;28;20025;-65
2023/03/17 00:50:38;;;;;;;2.13;1.80;;;;;;;6.65;90.08;100640.03;5049940;28;20524;-65
2023/03/17 00:53:05;;;;;;;1.63;1.52;;;;;;;6.64;90.64;100639.97;5067479;28;20053;-65
2023/03/17 00:55:31;;;;;;;3.70;1.85;;;;;;;6.66;89.95;100640.91;5067280;28;20112;-65
2023/03/17 00:57:56;;;;;;;2.60;1.55;;;;;;;6.65;89.54;100637.47;5056767;28;20460;-65
2023/03/17 01:00:25;;;;;;;2.05;1.70;;;;;;;6.64;90.46;100630.53;5068367;28;20669;-65
2023/03/17 01:02:53;;;;;;;2.53;1.70;;;;;;;6.63;89.97;100636.50;5060907;28;20025;-65
2023/03/17 01:05:20;;;;;;;3.00;2.05;;;;;;;6.59;90.95;100634.59;5050486;28;20051;-65
2023/03/17 01:07:51;;;;;;;1.80;1.60;;;;;;;6.58;89.77;100625.97;5068335;28;20017;-65
2023/03/17 01:10:19;;;;;;;2.08;1.60;;;;;;;6.58;90.34;100630.28;5067739;28;20050;-66
2023/03/17 01:12:45;;;;;;;4.10;1.90;;;;;;;6.56;90.69;100632.78;5068833;28;20027;-65
2023/03/17 01:15:12;;;;;;;3.83;1.73;;;;;;;6.56;89.82;100631.88;5052272;28;20424;-65
2023/03/17 01:17:38;;;;;;;2.80;1.42;;;;;;;6.56;90.48;100639.63;5049375;28;20067;-65
2023/03/17 01:20:05;;;;;;;3.05;1.70;;;;;;;6.54;90.52;100639.56;5051649;28;20036;-65
2023/03/17 01:22:31;;;;;;;2.20;1.55;;;;;;;6.52;90.45;100630.88;5068609;28;20153;-64
2023/03/17 01:24:56;;;;;;;1.90;1.67;;;;;;;6.47;90.39;100628.09;5066722;28;20099;-65
2023/03/17 01:27:21;;;;;;;4.03;1.63;;;;;;;6.42;90.91;100619.25;5067403;28;20025;-65
2023/03/17 01:29:46;;;;;;;4.75;1.77;;;;;;;6.41;90.56;100620.09;5067375;28;20036;-65
2023/03/17 01:32:12;;;;;;;4.22;2.10;;;;;;;6.38;90.99;100613.91;5067920;28;20020;-65
2023/03/17 01:34:37;;;;;;;2.05;1.27;;;;;;;6.38;90.87;100621.63;5067502;28;20029;-65
2023/03/17 01:37:03;;;;;;;2.20;1.27;;;;;;;6.36;90.99;100613.84;5067397;28;20123;-65
2023/03/17 01:39:28;;;;;;;1.65;1.40;;;;;;;6.33;91.22;100614.56;5067326;28;20024;-65
2023/03/17 01:42:00;;;;;;;3.53;1.65;;;;;;;6.31;91.48;100610.19;5066213;28;20040;-65
2023/03/17 01:44:26;;;;;;;4.20;1.58;;;;;;;6.31;91.71;100605.94;5066965;28;20025;-65
2023/03/17 01:46:52;;;;;;;2.03;1.58;;;;;;;6.29;91.08;100599.81;5067484;28;20024;-65
2023/03/17 01:49:29;;;;;;;2.13;1.60;;;;;;;6.28;91.24;100607.47;5051392;28;20158;-65
2023/03/17 01:52:07;;;;;;;3.13;1.70;;;;;;;6.26;91.00;100596.22;5059522;28;20024;-65
2023/03/17 01:54:47;;;;;;;1.63;1.52;;;;;;;6.24;90.75;100604.75;5067453;28;20052;-65
2023/03/17 01:57:44;;;;;;;3.17;1.50;;;;;;;6.20;91.63;100602.84;5067257;28;20467;-65
2023/03/17 02:00:13;;;;;;;2.47;1.67;;;;;;;6.19;91.95;100605.38;5067217;28;20032;-65
2023/03/17 02:02:41;;;;;;;3.10;1.63;;;;;;;6.16;91.28;100595.78;5067182;28;20029;-65
2023/03/17 02:05:11;;;;;;;1.67;1.40;;;;;;;6.13;91.81;100591.38;5065768;28;20043;-65
2023/03/17 02:07:37;;;;;;;2.55;1.80;;;;;;;6.13;91.28;100595.66;5067542;28;20465;-65
2023/03/17 02:10:04;;;;;;;2.63;1.52;;;;;;;6.08;91.95;100592.00;5054077;28;20025;-65
2023/03/17 02:12:29;;;;;;;2.92;1.67;;;;;;;6.07;92.17;100585.06;5067373;28;20028;-65
2023/03/17 02:14:56;;;;;;;2.03;1.40;;;;;;;6.03;92.74;100584.00;5053850;28;20086;-65
2023/03/17 02:17:24;;;;;;;2.80;1.45;;;;;;;6.00;93.17;100576.16;5047803;28;20045;-65
2023/03/17 02:19:49;;;;;;;3.53;1.55;;;;;;;5.97;93.15;100579.47;5047691;28;20165;-65
2023/03/17 02:22:16;;;;;;;2.97;1.50;;;;;;;5.96;93.16;100580.28;5046978;28;20120;-66
2023/03/17 02:24:49;;;;;;;3.00;1.55;;;;;;;5.94;93.20;100581.91;5061501;28;20155;-65
2023/03/17 02:27:20;;;;;;;2.30;1.50;;;;;;;5.92;93.74;100580.94;5067066;28;20078;-66
2023/03/17 02:29:45;;;;;;;2.67;1.65;;;;;;;5.92;93.77;100577.50;5049864;28;20424;-65
2023/03/17 02:32:16;;;;;;;4.35;1.65;;;;;;;5.91;93.02;100574.03;5047293;28;20049;-65
2023/03/17 02:34:42;;;;;;;1.77;1.30;;;;;;;5.91;93.36;100568.91;5046576;28;20060;-65
2023/03/17 02:37:08;;;;;;;4.03;1.45;;;;;;;5.92;93.08;100562.94;5057259;28;20028;-65
2023/03/17 02:39:34;;;;;;;2.17;1.75;;;;;;;5.93;92.54;100562.16;5048721;28;20024;-65
2023/03/17 02:41:59;;;;;;;2.30;1.50;;;;;;;5.95;93.21;100564.78;5047604;28;20025;-65
2023/03/17 02:44:25;;;;;;;1.92;1.50;;;;;;;5.94;93.16;100552.72;5047138;28;20031;-65
2023/03/17 02:46:51;;;;;;;2.75;1.83;;;;;;;5.94;93.06;100553.59;5056760;28;20024;-65
2023/03/17 02:49:17;;;;;;;2.10;1.42;;;;;;;5.94;92.74;100552.72;5066867;28;20032;-65
2023/03/17 02:51:42;;;;;;;2.17;1.70;;;;;;;5.93;92.44;100549.28;5067231;28;20024;-65
2023/03/17 02:54:08;;;;;;;2.30;1.70;;;;;;;5.94;92.92;100553.59;5066196;28;20477;-66
2023/03/17 02:56:33;;;;;;;1.83;1.60;;;;;;;5.94;92.70;100548.47;5066797;28;20016;-65
2023/03/17 02:58:58;;;;;;;4.28;1.90;;;;;;;5.94;92.44;100543.31;5066820;28;20063;-65
2023/03/17 03:01:25;;;;;;;2.08;1.63;;;;;;;5.95;92.13;100549.34;5067005;28;20048;-65
2023/03/17 03:03:51;;;;;;;2.42;1.30;;;;;;;5.96;91.69;100544.28;5065943;28;20025;-65
2023/03/17 03:06:16;;;;;;;3.35;1.83;;;;;;;5.97;91.70;100546.03;5067256;28;20384;-65
2023/03/17 03:08:41;;;;;;;2.63;1.42;;;;;;;5.97;91.97;100548.59;5064563;28;20396;-65
2023/03/17 03:11:07;;;;;;;2.60;1.58;;;;;;;5.97;91.71;100552.88;5047327;28;20028;-65
2023/03/17 03:13:32;;;;;;;3.05;1.75;;;;;;;5.98;92.06;100559.78;5063005;28;20697;-65
2023/03/17 03:15:58;;;;;;;3.00;1.90;;;;;;;5.96;91.74;100546.84;5067549;28;20025;-65
2023/03/17 03:18:23;;;;;;;1.67;1.48;;;;;;;5.96;92.16;100545.97;5051462;28;20037;-65
2023/03/17 03:20:48;;;;;;;2.85;2.28;;;;;;;5.96;91.54;100540.81;5047425;28;20388;-65
2023/03/17 03:23:15;;;;;;;2.10;1.60;;;;;;;5.95;91.86;100550.25;5047920;28;20020;-65
2023/03/17 03:25:41;;;;;;;3.80;1.48;;;;;;;5.95;91.46;100555.38;5047920;28;20465;-65
2023/03/17 03:28:07;;;;;;;2.00;1.50;;;;;;;5.97;91.29;100566.59;5047463;28;20032;-65
2023/03/17 03:30:34;;;;;;;2.80;1.70;;;;;;;5.97;91.56;100561.44;5047422;28;20021;-65
2023/03/17 03:32:59;;;;;;;1.67;1.27;;;;;;;5.97;91.65;100558.88;5048211;28;20390;-65
2023/03/17 03:35:25;;;;;;;2.97;1.52;;;;;;;5.96;91.24;100552.00;5047447;28;20096;-65
2023/03/17 03:37:50;;;;;;;2.33;1.50;;;;;;;5.98;91.22;100549.47;5047931;28;20516;-65
2023/03/17 03:40:16;;;;;;;3.65;1.58;;;;;;;5.97;91.70;100558.03;5047368;28;20021;-65
2023/03/17 03:42:41;;;;;;;3.88;1.60;;;;;;;5.95;91.94;100565.66;5048693;28;20028;-65
2023/03/17 03:45:07;;;;;;;1.55;1.33;;;;;;;5.94;91.59;100571.59;5048072;28;20029;-65
2023/03/17 03:47:32;;;;;;;2.83;1.80;;;;;;;5.93;91.84;100567.28;5048380;28;20021;-65
2023/03/17 03:49:58;;;;;;;2.83;1.42;;;;;;;5.95;91.78;100577.66;5047412;28;20252;-65
2023/03/17 03:52:23;;;;;;;2.22;1.65;;;;;;;5.95;91.91;100581.09;5051607;28;20072;-65
2023/03/17 03:54:48;;;;;;;2.78;1.63;;;;;;;5.93;92.00;100571.53;5050240;28;20017;-65
2023/03/17 03:57:14;;;;;;;3.03;1.73;;;;;;;5.91;92.03;100566.34;5051673;28;20024;-66
2023/03/17 03:59:39;;;;;;;2.78;1.30;;;;;;;5.89;92.42;100581.69;5051329;28;20035;-65
2023/03/17 04:02:05;;;;;;;1.67;1.30;;;;;;;5.91;91.60;100584.34;5051255;28;20044;-65
2023/03/17 04:04:31;;;;;;;2.38;1.50;;;;;;;5.90;92.37;100585.13;5050479;28;20021;-65
2023/03/17 04:06:57;;;;;;;2.10;1.80;;;;;;;5.91;91.81;100586.00;5051030;28;20365;-65
2023/03/17 04:09:22;;;;;;;4.95;2.00;;;;;;;5.88;91.80;100589.34;5050296;28;20024;-65
2023/03/17 04:11:47;;;;;;;2.25;1.40;;;;;;;5.87;91.97;100582.41;5052930;28;20044;-65
2023/03/17 04:14:13;;;;;;;2.13;1.55;;;;;;;5.86;92.30;100585.81;5070503;28;20035;-65
2023/03/17 04:16:38;;;;;;;1.98;1.77;;;;;;;5.87;92.25;100582.41;5067695;28;20047;-65
2023/03/17 04:19:03;;;;;;;3.15;1.80;;;;;;;5.84;92.72;100587.41;5050764;28;20112;-64
2023/03/17 04:21:29;;;;;;;2.15;1.63;;;;;;;5.82;92.47;100571.03;5062914;28;20115;-65
2023/03/17 04:23:54;;;;;;;3.50;1.83;;;;;;;5.82;92.32;100576.19;5069396;28;20082;-65
2023/03/17 04:26:21;;;;;;;1.60;1.33;;;;;;;5.81;92.91;100577.84;5068981;28;20021;-65
2023/03/17 04:28:47;;;;;;;2.80;1.33;;;;;;;5.79;93.01;100587.22;5069425;28;20020;-65
2023/03/17 04:31:12;;;;;;;5.25;1.77;;;;;;;5.79;93.11;100582.06;5068156;28;20078;-65
2023/03/17 04:33:38;;;;;;;2.38;1.70;;;;;;;5.80;92.87;100578.69;5068789;28;20066;-65
2023/03/17 04:36:05;;;;;;;3.63;1.83;;;;;;;5.81;92.98;100582.16;5067852;28;20423;-65
2023/03/17 04:38:30;;;;;;;1.98;1.60;;;;;;;5.81;92.82;100582.16;5068882;28;20020;-65
2023/03/17 04:40:55;;;;;;;3.95;1.52;;;;;;;5.80;93.26;100580.38;5067066;28;20465;-65
2023/03/17 04:43:21;;;;;;;2.45;1.67;;;;;;;5.80;92.45;100588.06;5067513;28;20020;-65
2023/03/17 04:45:46;;;;;;;2.20;1.80;;;;;;;5.80;93.03;100588.97;5068279;28;20392;-65
2023/03/17 04:48:11;;;;;;;3.28;1.73;;;;;;;5.76;93.59;100585.38;5068625;28;20044;-65
2023/03/17 04:50:37;;;;;;;2.35;1.60;;;;;;;5.75;93.72;100591.34;5066811;28;20028;-65
2023/03/17 04:53:03;;;;;;;2.67;1.45;;;;;;;5.75;93.89;100582.72;5068193;28;20036;-65
2023/03/17 04:55:28;;;;;;;3.38;1.52;;;;;;;5.73;93.64;100584.34;5066548;28;20025;-65
2023/03/17 04:57:53;;;;;;;2.42;1.77;;;;;;;5.73;93.88;100582.66;5068324;28;20544;-65
2023/03/17 05:00:19;;;;;;;3.67;1.73;;;;;;;5.73;93.59;100585.22;5066543;28;20038;-65
2023/03/17 05:02:44;;;;;;;2.60;1.77;;;;;;;5.74;93.55;100584.41;5065871;28;20028;-65
2023/03/17 05:05:10;;;;;;;2.75;1.42;;;;;;;5.76;93.01;100576.75;5065972;28;20032;-65
2023/03/17 05:07:35;;;;;;;3.15;1.80;;;;;;;5.76;93.52;100564.78;5067681;28;20551;-65
2023/03/17 05:10:01;;;;;;;2.63;1.70;;;;;;;5.76;93.59;100569.94;5066560;28;20752;-65
2023/03/17 05:12:26;;;;;;;2.08;1.48;;;;;;;5.78;93.29;100567.44;5067456;28;20437;-65
2023/03/17 05:14:52;;;;;;;3.25;1.60;;;;;;;5.76;93.56;100557.09;5067959;28;20024;-65
2023/03/17 05:17:17;;;;;;;5.35;2.00;;;;;;;5.76;94.04;100548.47;5066360;28;20457;-64
2023/03/17 05:19:42;;;;;;;2.78;1.85;;;;;;;5.75;94.08;100552.75;5068221;28;20029;-65
2023/03/17 05:22:07;;;;;;;2.22;1.50;;;;;;;5.73;94.36;100551.81;5068090;28;20058;-65
2023/03/17 05:24:33;;;;;;;2.55;1.70;;;;;;;5.73;94.36;100554.38;5067942;28;20432;-65
2023/03/17 05:26:58;;;;;;;3.05;1.67;;;;;;;5.73;94.52;100559.50;5067142;28;20086;-65
2023/03/17 05:29:24;;;;;;;3.40;1.70;;;;;;;5.74;94.50;100563.84;5067651;28;20028;-65
2023/03/17 05:31:49;;;;;;;2.80;1.55;;;;;;;5.75;94.52;100568.19;5067522;28;20020;-65
2023/03/17 05:34:14;;;;;;;3.25;1.60;;;;;;;5.80;94.16;100577.78;5068107;28;20028;-65
2023/03/17 05:36:40;;;;;;;2.72;1.63;;;;;;;5.80;94.46;100582.94;5062340;28;20044;-65
2023/03/17 05:39:06;;;;;;;3.88;1.70;;;;;;;5.80;94.59;100582.94;5061265;28;20112;-65
2023/03/17 05:41:32;;;;;;;4.95;1.77;;;;;;;5.77;94.55;100581.97;5067634;28;20039;-65
2023/03/17 05:43:58;;;;;;;1.92;1.55;;;;;;;5.79;94.36;100584.66;5065808;28;20044;-65
2023/03/17 05:46:23;;;;;;;2.85;1.70;;;;;;;5.80;94.28;100580.38;5065220;28;20028;-65
2023/03/17 05:48:48;;;;;;;3.03;1.73;;;;;;;5.80;94.65;100572.66;5065807;28;20259;-65
2023/03/17 05:51:14;;;;;;;2.67;1.50;;;;;;;5.79;94.17;100560.63;5065138;28;20024;-65
2023/03/17 05:53:40;;;;;;;2.33;1.60;;;;;;;5.78;94.61;100567.44;5066867;28;20048;-65
2023/03/17 05:56:06;;;;;;;2.60;1.65;;;;;;;5.78;94.55;100572.56;5067297;28;20472;-65
2023/03/17 05:58:31;;;;;;;2.25;1.67;;;;;;;5.79;95.12;100578.63;5068851;28;20030;-65
2023/03/17 06:00:56;;;;;;;3.28;1.80;;;;;;;5.75;95.84;100575.91;5055456;28;20040;-65
2023/03/17 06:03:22;;;;;;;2.03;1.70;;;;;;;5.74;95.98;100565.50;5053054;28;20031;-65
2023/03/17 06:05:47;;;;;;;5.88;2.00;;;;;;;5.72;96.16;100562.88;5056180;28;20028;-65
2023/03/17 06:08:12;;;;;;;3.72;1.60;;;;;;;5.71;95.91;100578.22;5044128;28;20648;-66
2023/03/17 06:10:38;;;;;;;6.10;1.60;;;;;;;5.72;95.85;100573.16;5044799;28;20025;-65
2023/03/17 06:13:03;;;;;;;2.53;1.80;;;;;;;5.71;96.21;100571.41;5045143;28;20031;-65
2023/03/17 06:15:29;;;;;;;3.40;1.50;;;;;;;5.71;96.57;100576.56;5065976;28;20016;-65
2023/03/17 06:17:55;;;;;;;3.50;1.70;;;;;;;5.69;97.25;100575.59;5067896;28;20449;-65
2023/03/17 06:20:20;;;;;;;1.80;1.58;;;;;;;5.69;96.84;100583.31;5049270;28;20033;-65
2023/03/17 06:22:46;;;;;;;2.80;1.77;;;;;;;5.69;96.88;100573.03;5047326;28;20033;-65
2023/03/17 06:25:12;;;;;;;3.92;2.10;;;;;;;5.70;97.83;100579.06;5059593;28;20024;-64
2023/03/17 06:27:38;;;;;;;2.90;1.75;;;;;;;5.70;97.26;100573.91;5058662;28;20102;-65
2023/03/17 06:30:07;;;;;;;4.95;1.73;;;;;;;5.74;97.27;100578.38;5059593;28;20028;-65
2023/03/17 06:32:32;;;;;;;3.75;1.75;;;;;;;5.75;97.77;100578.47;5057597;28;20443;-64
2023/03/17 06:34:58;;;;;;;6.22;2.50;;;;;;;5.79;97.36;100576.03;5053245;28;20116;-65
2023/03/17 06:37:24;;;;;;;2.72;1.70;;;;;;;5.83;96.50;100581.38;5054057;28;20031;-65
2023/03/17 06:39:49;;;;;;;2.28;1.85;;;;;;;5.87;96.69;100582.41;5055833;28;20388;-64
2023/03/17 06:42:14;;;;;;;3.30;2.10;;;;;;;5.88;97.18;100579.06;5056285;28;20120;-65
2023/03/17 06:44:40;;;;;;;4.40;2.00;;;;;;;5.91;97.05;100573.16;5040726;28;20115;-65
2023/03/17 06:47:06;;;;;;;4.65;1.80;;;;;;;5.93;96.85;100564.72;5054296;28;20328;-65
2023/03/17 06:49:31;;;;;;;2.80;1.90;;;;;;;5.97;96.86;100568.31;5043373;28;20025;-65
2023/03/17 06:51:57;;;;;;;3.30;2.17;;;;;;;6.00;96.91;100571.91;5044298;28;20537;-65
2023/03/17 06:54:24;;;;;;;3.00;2.10;;;;;;;6.04;96.53;100578.06;5057826;28;20032;-65
2023/03/17 06:56:50;;;;;;;4.43;1.95;;;;;;;6.07;96.50;100564.50;5059107;28;20070;-65
2023/03/17 06:59:15;;;;;;;2.63;1.83;;;;;;;6.10;96.53;100574.91;5053004;28;20103;-65
2023/03/17 07:01:41;;;;;;;3.35;2.10;;;;;;;6.18;96.31;100578.75;5059321;28;20111;-66
2023/03/17 07:04:06;;;;;;;3.05;2.00;;;;;;;6.22;97.08;100575.47;5059647;28;20456;-65
2023/03/17 07:06:32;;;;;;;3.20;1.83;;;;;;;6.28;95.87;100585.19;5057940;28;20100;-65
2023/03/17 07:08:57;;;;;;;7.40;2.08;;;;;;;6.35;96.15;100586.34;5053868;28;20389;-66
2023/03/17 07:11:23;;;;;;;2.22;2.03;;;;;;;6.39;95.44;100588.25;5053865;28;20028;-65
2023/03/17 07:13:49;;;;;;;2.97;2.08;;;;;;;6.46;95.84;100590.28;5064275;28;20031;-65
2023/03/17 07:16:15;;;;;;;2.83;2.35;;;;;;;6.54;94.85;100574.28;5066953;28;20103;-65
2023/03/17 07:18:42;;;;;;;6.95;2.45;;;;;;;6.58;94.93;100578.78;5065007;28;20115;-65
2023/03/17 07:21:08;;;;;;;5.20;2.30;;;;;;;6.63;94.28;100574.72;5065909;28;20369;-65
2023/03/17 07:23:33;;;;;;;5.65;2.33;;;;;;;6.69;94.06;100580.09;5063722;28;20025;-65
2023/03/17 07:25:59;;;;;;;4.68;2.55;;;;;;;6.76;94.14;100582.97;5067826;28;20419;-64
2023/03/17 07:28:24;;;;;;;5.20;2.63;;;;;;;6.84;94.23;100579.91;5066424;28;20024;-65
2023/03/17 07:30:50;;;;;;;3.30;2.05;;;;;;;6.92;93.99;100587.09;5046044;28;20033;-65
2023/03/17 07:33:19;;;;;;;3.28;2.03;;;;;;;7.03;94.11;100578.13;5031265;28;20022;-65
2023/03/17 07:35:45;;;;;;;4.53;2.42;;;;;;;7.09;92.89;100569.75;5038012;28;20033;-65
2023/03/17 07:38:10;;;;;;;4.22;2.15;;;;;;;7.16;93.12;100569.19;5038303;28;20496;-65
2023/03/17 07:40:36;;;;;;;3.33;2.33;;;;;;;7.23;91.43;100565.19;5046364;28;20112;-65
2023/03/17 07:43:01;;;;;;;4.53;2.05;;;;;;;7.30;90.52;100566.31;5044095;28;20445;-65
2023/03/17 07:45:27;;;;;;;4.28;2.25;;;;;;;7.36;90.36;100563.97;5045882;28;20468;-65
2023/03/17 07:47:52;;;;;;;4.65;2.45;;;;;;;7.42;91.57;100576.25;5032810;28;20037;-65
2023/03/17 07:50:19;;;;;;;7.68;3.00;;;;;;;7.45;90.75;100566.06;5041489;28;20035;-65
2023/03/17 07:52:44;;;;;;;6.45;2.28;;;;;;;7.54;89.69;100565.53;5040252;28;20050;-65
2023/03/17 07:55:11;;;;;;;3.72;2.63;;;;;;;7.61;89.99;100562.38;5039643;28;20055;-66
2023/03/17 07:57:36;;;;;;;7.25;2.55;;;;;;;7.69;89.69;100560.13;5036465;28;20025;-65
2023/03/17 08:00:03;;;;;;;6.10;2.58;;;;;;;7.79;88.98;100563.94;5043836;28;20037;-65
2023/03/17 08:02:28;;;;;;;4.45;3.03;;;;;;;7.87;88.68;100567.72;5039968;28;20036;-66
2023/03/17 08:04:55;;;;;;;6.20;2.60;;;;;;;7.95;88.97;100577.44;5049185;28;20025;-66
2023/03/17 08:07:20;;;;;;;4.70;2.75;;;;;;;8.03;88.53;100586.34;5037770;28;20039;-66
2023/03/17 08:09:46;;;;;;;5.38;2.70;;;;;;;8.09;88.28;100581.44;5046315;28;20029;-65
2023/03/17 08:12:12;;;;;;;5.20;2.65;;;;;;;8.17;87.55;100573.97;5049449;28;20032;-65
2023/03/17 08:14:37;;;;;;;7.85;2.50;;;;;;;8.25;86.35;100569.09;5048948;28;20115;-66
2023/03/17 08:17:03;;;;;;;7.97;2.70;;;;;;;8.37;85.30;100572.13;5038273;28;20047;-65
2023/03/17 08:19:29;;;;;;;6.25;2.47;;;;;;;8.53;85.90;100567.53;5037800;28;20781;-66
2023/03/17 08:21:54;;;;;;;4.25;2.70;;;;;;;8.70;84.48;100567.28;5038735;28;20031;-66
2023/03/17 08:24:19;;;;;;;7.75;3.17;;;;;;;8.85;83.30;100580.72;5037861;28;20064;-66
2023/03/17 08:26:48;;;;;;;8.60;3.05;;;;;;;8.97;80.99;100588.06;5047317;28;20578;-67
2023/03/17 08:29:14;;;;;;;7.15;2.60;;;;;;;9.10;81.41;100591.06;5028662;28;20044;-66
2023/03/17 08:31:40;;;;;;;5.75;2.65;;;;;;;9.27;79.12;100589.03;5036073;28;20028;-66
2023/03/17 08:34:06;;;;;;;6.28;3.13;;;;;;;9.43;79.53;100581.75;5044682;28;20476;-65
2023/03/17 08:36:32;;;;;;;6.88;2.72;;;;;;;9.59;78.49;100573.69;5068857;28;20542;-66
2023/03/17 08:38:57;;;;;;;6.63;2.80;;;;;;;9.75;78.67;100573.28;5050118;28;20366;-66
2023/03/17 08:41:25;;;;;;;7.75;2.75;;;;;;;9.88;76.98;100566.75;5050554;28;20036;-66
2023/03/17 08:43:51;;;;;;;5.72;3.30;;;;;;;9.97;75.97;100567.06;5050202;28;20546;-66
2023/03/17 08:46:28;;;;;;;6.10;3.05;;;;;;;10.06;75.44;100546.63;5050247;28;20025;-65
2023/03/17 08:48:55;;;;;;;7.50;3.00;;;;;;;10.12;75.35;100545.03;5052036;28;20025;-65
2023/03/17 08:51:23;;;;;;;6.53;2.70;;;;;;;10.17;73.70;100546.06;5061706;28;20071;-65
2023/03/17 08:53:49;;;;;;;9.20;2.92;;;;;;;10.23;73.27;100554.00;5064155;28;20056;-65
2023/03/17 08:56:15;;;;;;;7.28;2.58;;;;;;;10.27;74.83;100566.19;5069523;28;20385;-64
2023/03/17 08:58:41;;;;;;;8.70;2.85;;;;;;;10.35;72.58;100573.31;5052356;28;20035;-65
2023/03/17 09:01:07;;;;;;;11.32;3.10;;;;;;;10.43;72.68;100574.44;5048545;28;20033;-65
2023/03/17 09:03:33;;;;;;;7.00;2.70;;;;;;;10.55;72.98;100573.91;5048330;28;20039;-65
2023/03/17 09:05:59;;;;;;;6.25;2.50;;;;;;;10.67;72.49;100569.06;5048539;28;20051;-65
2023/03/17 09:08:26;;;;;;;7.65;2.65;;;;;;;10.78;70.25;100569.38;5047966;28;20043;-65
2023/03/17 09:10:52;;;;;;;8.07;2.50;;;;;;;10.88;71.24;100564.44;5047738;28;20056;-65
2023/03/17 09:13:17;;;;;;;5.70;2.80;;;;;;;10.94;71.96;100574.94;5049361;28;20021;-64
2023/03/17 09:15:43;;;;;;;6.47;2.25;;;;;;;11.01;69.75;100563.03;5049836;28;20033;-65
2023/03/17 09:18:09;;;;;;;5.95;2.35;;;;;;;11.05;71.28;100568.34;5049468;28;20104;-65
2023/03/17 09:20:35;;;;;;;7.63;2.65;;;;;;;11.10;71.33;100572.78;5049548;28;20396;-65
2023/03/17 09:23:03;;;;;;;5.80;2.30;;;;;;;11.13;69.67;100560.75;5051215;28;20123;-65
2023/03/17 09:25:28;;;;;;;6.63;2.72;;;;;;;11.16;69.35;100571.22;5061101;28;20036;-65
2023/03/17 09:27:54;;;;;;;4.25;2.50;;;;;;;11.27;69.78;100578.38;5049459;28;20379;-65
2023/03/17 09:30:19;;;;;;;5.43;2.50;;;;;;;11.37;70.31;100576.91;5056880;28;20056;-65
2023/03/17 09:32:45;;;;;;;2.78;2.05;;;;;;;11.45;69.40;100575.34;5065015;28;20079;-65
2023/03/17 09:35:11;;;;;;;3.88;2.20;;;;;;;11.47;69.72;100575.41;5069284;28;20052;-64
2023/03/17 09:37:36;;;;;;;6.00;2.67;;;;;;;11.46;69.87;100564.13;5040426;28;20496;-65
2023/03/17 09:40:06;;;;;;;7.13;2.95;;;;;;;11.45;69.91;100556.31;5042936;28;20029;-64
2023/03/17 09:42:59;;;;;;;5.15;2.42;;;;;;;11.44;71.28;100552.81;5051845;28;20048;-64
2023/03/17 09:45:40;;;;;;;4.60;2.58;;;;;;;11.42;70.73;100551.94;5047591;28;20118;-65
2023/03/17 09:48:43;;;;;;;6.38;2.30;;;;;;;11.44;70.51;100547.63;5035910;28;20622;-64
2023/03/17 09:51:10;;;;;;;5.47;2.58;;;;;;;11.47;70.37;100544.25;5032988;28;20066;-65
2023/03/17 09:53:43;;;;;;;6.15;2.42;;;;;;;11.49;70.87;100548.66;5027794;28;20406;-64
2023/03/17 09:56:14;;;;;;;4.47;2.30;;;;;;;11.53;70.81;100544.41;5033538;28;20607;-64
2023/03/17 09:58:46;;;;;;;4.22;2.53;;;;;;;11.59;71.23;100544.53;5031168;28;20021;-64
2023/03/17 10:01:12;;;;;;;4.22;2.20;;;;;;;11.71;70.78;100554.31;5029317;28;20674;-64
2023/03/17 10:03:38;;;;;;;4.47;2.47;;;;;;;11.77;70.79;100549.28;5028497;28;20060;-64
2023/03/17 10:06:27;;;;;;;3.95;2.50;;;;;;;11.80;69.97;100551.03;5032275;28;20564;-65
2023/03/17 10:09:22;;;;;;;4.50;2.05;;;;;;;11.81;70.70;100555.41;5034362;28;20036;-65
2023/03/17 10:11:52;;;;;;;4.32;2.60;;;;;;;11.77;70.43;100544.09;5026216;28;20464;-64
2023/03/17 10:14:37;;;;;;;2.58;2.00;;;;;;;11.77;72.39;100551.88;5028012;28;20013;-64
2023/03/17 10:17:04;;;;;;;2.83;2.15;;;;;;;11.77;73.94;100567.44;5031275;28;20139;-65
2023/03/17 10:19:45;;;;;;;7.35;2.58;;;;;;;11.76;76.61;100589.03;5033233;28;20025;-64
2023/03/17 10:22:23;;;;;;;4.45;2.47;;;;;;;11.73;77.72;100591.56;5031612;28;20155;-65
2023/03/17 10:24:58;;;;;;;5.30;2.30;;;;;;;11.74;78.46;100580.38;5029933;28;20040;-65
2023/03/17 10:27:23;;;;;;;5.55;2.47;;;;;;;11.78;78.13;100578.72;5028289;28;20013;-64
2023/03/17 10:29:49;;;;;;;4.60;2.20;;;;;;;11.87;75.72;100591.03;5032921;28;20055;-65
2023/03/17 10:32:15;;;;;;;2.63;1.80;;;;;;;11.98;78.50;100586.09;5028318;28;20130;-65
2023/03/17 10:34:41;;;;;;;5.63;2.78;;;;;;;12.07;81.01;100588.84;5031180;28;20025;-65
2023/03/17 10:37:11;;;;;;;3.35;2.40;;;;;;;12.14;83.73;100584.72;5027298;28;20124;-65
2023/03/17 10:39:45;;;;;;;3.03;2.38;;;;;;;12.21;85.16;100581.41;5030389;28;20115;-65
2023/03/17 10:42:18;;;;;;;3.35;2.33;;;;;;;12.27;84.43;100582.38;5030154;28;20826;-65
2023/03/17 10:44:49;;;;;;;3.92;2.45;;;;;;;12.32;86.12;100575.56;5028569;28;20039;-65
2023/03/17 10:47:35;;;;;;;;;;;;;;;12.44;86.40;100578.41;5036588;28;20086;-64
2023/03/17 10:50:25;;;;;;;2.42;1.88;;;;;;;12.68;88.07;100571.06;5059799;28;19912;-65
2023/03/17 10:52:58;;;;;;;3.15;1.98;;;;;;;12.92;87.40;100575.84;5047800;28;20048;-64
2023/03/17 10:55:28;;;;;;;3.95;2.53;;;;;;;13.12;85.77;100583.13;5047855;28;20025;-65
2023/03/17 10:58:14;;;;;;;3.13;2.40;;;;;;;13.33;82.93;100574.78;5044120;28;20108;-65
2023/03/17 11:00:55;;;;;;;2.38;1.88;;;;;;;13.55;82.62;100577.78;5049702;28;20040;-65
2023/03/17 11:03:24;;;;;;;3.47;2.10;;;;;;;13.74;82.56;100578.06;5056756;28;20381;-65
2023/03/17 11:06:10;;;;;;;3.25;2.10;;;;;;;13.87;81.33;100575.63;5061021;28;20032;-65
2023/03/17 11:08:40;;;;;;;2.47;1.83;;;;;;;13.93;79.92;100566.16;5049805;28;20033;-65
2023/03/17 11:11:09;;;;;;;4.32;2.38;;;;;;;13.96;78.96;100561.88;5034276;28;20033;-65
2023/03/17 11:13:37;;;;;;;4.07;2.30;;;;;;;13.97;78.35;100558.38;5046122;28;20366;-65
2023/03/17 11:16:22;;;;;;;5.90;2.78;;;;;;;14.02;78.61;100556.72;5063872;28;20244;-65
2023/03/17 11:18:53;;;;;;;3.72;2.30;;;;;;;14.15;79.19;100561.25;5053266;28;20051;-65
2023/03/17 11:21:30;;;;;;;5.25;2.67;;;;;;;14.27;78.17;100564.84;5059837;28;20024;-66
2023/03/17 11:24:20;;;;;;;2.50;2.30;;;;;;;14.39;77.60;100554.56;5065926;28;20130;-66
2023/03/17 11:27:16;;;;;;;4.63;2.30;;;;;;;14.53;77.35;100552.13;5065448;28;20028;-66
2023/03/17 11:29:51;;;;;;;4.18;2.20;;;;;;;14.71;76.61;100549.69;5049910;28;20779;-66
2023/03/17 11:32:35;;;;;;;5.57;2.33;;;;;;;14.85;75.26;100544.66;5050831;28;20482;-66
2023/03/17 11:35:37;;;;;;;4.13;2.15;;;;;;;14.97;74.66;100554.31;5056510;28;20052;-66